sensor_id;sensor_type;location;lat;lon;timestamp;temperature;humidity
43842;DHT22;29495;49.970;20.842;2022-11-21T00:00:56;0.00;99.90
43842;DHT22;29495;49.970;20.842;2022-11-21T00:03:23;-0.10;99.90
43842;DHT22;29495;49.970;20.842;2022-11-21T00:05:49;-0.10;99.90
43842;DHT22;29495;49.970;20.842;2022-11-21T00:08:19;-0.10;99.90
43842;DHT22;29495;49.970;20.842;2022-11-21T00:10:46;-0.10;99.90
43842;DHT22;29495;49.970;20.842;2022-11-21T00:13:17;0.00;99.90
43842;DHT22;29495;49.970;20.842;2022-11-21T00:15:44;0.00;99.90
43842;DHT22;29495;49.970;20.842;2022-11-21T00:18:10;0.00;99.90
43842;DHT22;29495;49.970;20.842;2022-11-21T00:20:38;0.00;99.90
43842;DHT22;29495;49.970;20.842;2022-11-21T00:23:04;-0.10;99.90
43842;DHT22;29495;49.970;20.842;2022-11-21T00:25:30;0.00;99.90
43842;DHT22;29495;49.970;20.842;2022-11-21T00:27:56;0.00;99.90
43842;DHT22;29495;49.970;20.842;2022-11-21T00:30:22;0.00;99.90
43842;DHT22;29495;49.970;20.842;2022-11-21T00:32:48;0.10;99.90
43842;DHT22;29495;49.970;20.842;2022-11-21T00:35:14;0.20;99.90
43842;DHT22;29495;49.970;20.842;2022-11-21T00:37:40;0.20;99.90
43842;DHT22;29495;49.970;20.842;2022-11-21T00:40:06;0.20;99.90
43842;DHT22;29495;49.970;20.842;2022-11-21T00:42:33;0.20;99.90
43842;DHT22;29495;49.970;20.842;2022-11-21T00:44:59;0.20;99.90
43842;DHT22;29495;49.970;20.842;2022-11-21T00:47:24;0.20;99.90
43842;DHT22;29495;49.970;20.842;2022-11-21T00:49:50;0.20;99.90
43842;DHT22;29495;49.970;20.842;2022-11-21T00:52:17;0.20;99.90
43842;DHT22;29495;49.970;20.842;2022-11-21T00:54:43;0.20;99.90
43842;DHT22;29495;49.970;20.842;2022-11-21T00:57:09;0.20;99.90
43842;DHT22;29495;49.970;20.842;2022-11-21T00:59:35;0.10;99.90
43842;DHT22;29495;49.970;20.842;2022-11-21T01:02:01;0.10;99.90
43842;DHT22;29495;49.970;20.842;2022-11-21T01:04:34;0.00;99.90
43842;DHT22;29495;49.970;20.842;2022-11-21T01:07:00;0.00;99.90
43842;DHT22;29495;49.970;20.842;2022-11-21T01:09:26;-0.10;99.90
43842;DHT22;29495;49.970;20.842;2022-11-21T01:11:53;-0.20;99.90
43842;DHT22;29495;49.970;20.842;2022-11-21T01:14:20;-0.30;99.90
43842;DHT22;29495;49.970;20.842;2022-11-21T01:16:46;-0.40;99.90
43842;DHT22;29495;49.970;20.842;2022-11-21T01:19:12;-0.40;99.90
43842;DHT22;29495;49.970;20.842;2022-11-21T01:21:37;-0.40;99.90
43842;DHT22;29495;49.970;20.842;2022-11-21T01:24:04;-0.40;99.90
43842;DHT22;29495;49.970;20.842;2022-11-21T01:26:30;-0.50;99.90
43842;DHT22;29495;49.970;20.842;2022-11-21T01:28:58;-0.40;99.90
43842;DHT22;29495;49.970;20.842;2022-11-21T01:31:28;-0.50;99.90
43842;DHT22;29495;49.970;20.842;2022-11-21T01:33:57;-0.70;99.90
43842;DHT22;29495;49.970;20.842;2022-11-21T01:36:41;-0.60;99.90
43842;DHT22;29495;49.970;20.842;2022-11-21T01:39:09;-0.80;99.90
43842;DHT22;29495;49.970;20.842;2022-11-21T01:41:40;-0.90;99.90
43842;DHT22;29495;49.970;20.842;2022-11-21T01:44:15;-0.90;99.90
43842;DHT22;29495;49.970;20.842;2022-11-21T01:46:42;-1.00;99.90
43842;DHT22;29495;49.970;20.842;2022-11-21T01:49:32;-1.00;99.90
43842;DHT22;29495;49.970;20.842;2022-11-21T01:52:04;-1.10;99.90
43842;DHT22;29495;49.970;20.842;2022-11-21T01:59:59;-1.30;99.90
43842;DHT22;29495;49.970;20.842;2022-11-21T02:02:34;-1.20;99.90
43842;DHT22;29495;49.970;20.842;2022-11-21T02:05:04;-1.30;99.90
43842;DHT22;29495;49.970;20.842;2022-11-21T02:07:34;-1.50;99.90
43842;DHT22;29495;49.970;20.842;2022-11-21T02:10:03;-1.40;99.90
43842;DHT22;29495;49.970;20.842;2022-11-21T02:12:31;-1.30;99.90
43842;DHT22;29495;49.970;20.842;2022-11-21T02:14:58;-1.40;99.90
43842;DHT22;29495;49.970;20.842;2022-11-21T02:17:28;-1.30;99.90
43842;DHT22;29495;49.970;20.842;2022-11-21T02:20:00;-1.40;99.90
43842;DHT22;29495;49.970;20.842;2022-11-21T02:25:25;-1.40;99.90
43842;DHT22;29495;49.970;20.842;2022-11-21T02:27:56;-1.30;99.90
43842;DHT22;29495;49.970;20.842;2022-11-21T02:30:23;-1.40;99.90
43842;DHT22;29495;49.970;20.842;2022-11-21T02:32:52;-1.60;99.90
43842;DHT22;29495;49.970;20.842;2022-11-21T02:35:19;-1.60;99.90
43842;DHT22;29495;49.970;20.842;2022-11-21T02:37:56;-1.60;99.90
43842;DHT22;29495;49.970;20.842;2022-11-21T02:40:36;-1.70;99.90
43842;DHT22;29495;49.970;20.842;2022-11-21T02:45:40;-1.60;99.90
43842;DHT22;29495;49.970;20.842;2022-11-21T02:48:07;-1.80;99.90
43842;DHT22;29495;49.970;20.842;2022-11-21T02:50:39;-1.90;99.90
43842;DHT22;29495;49.970;20.842;2022-11-21T02:53:08;-1.70;99.90
43842;DHT22;29495;49.970;20.842;2022-11-21T02:55:34;-1.70;99.90
43842;DHT22;29495;49.970;20.842;2022-11-21T02:58:00;-1.80;99.90
43842;DHT22;29495;49.970;20.842;2022-11-21T03:00:26;-2.00;99.90
43842;DHT22;29495;49.970;20.842;2022-11-21T03:02:52;-1.90;99.90
43842;DHT22;29495;49.970;20.842;2022-11-21T03:05:19;-1.90;99.90
43842;DHT22;29495;49.970;20.842;2022-11-21T03:07:46;-1.80;99.90
43842;DHT22;29495;49.970;20.842;2022-11-21T03:10:13;-2.00;99.90
43842;DHT22;29495;49.970;20.842;2022-11-21T03:12:40;-2.10;99.90
43842;DHT22;29495;49.970;20.842;2022-11-21T03:15:09;-2.10;99.90
43842;DHT22;29495;49.970;20.842;2022-11-21T03:17:35;-2.00;99.90
43842;DHT22;29495;49.970;20.842;2022-11-21T03:20:01;-2.00;99.90
43842;DHT22;29495;49.970;20.842;2022-11-21T03:22:27;-1.90;99.90
43842;DHT22;29495;49.970;20.842;2022-11-21T03:24:53;-2.00;99.90
43842;DHT22;29495;49.970;20.842;2022-11-21T03:27:19;-2.10;99.90
43842;DHT22;29495;49.970;20.842;2022-11-21T03:29:45;-2.10;99.90
43842;DHT22;29495;49.970;20.842;2022-11-21T03:32:11;-2.30;99.90
43842;DHT22;29495;49.970;20.842;2022-11-21T03:34:37;-2.30;99.90
43842;DHT22;29495;49.970;20.842;2022-11-21T03:37:03;-2.30;99.90
43842;DHT22;29495;49.970;20.842;2022-11-21T03:39:29;-2.30;99.90
43842;DHT22;29495;49.970;20.842;2022-11-21T03:41:55;-2.40;99.90
43842;DHT22;29495;49.970;20.842;2022-11-21T03:44:21;-2.40;99.90
43842;DHT22;29495;49.970;20.842;2022-11-21T03:46:48;-2.30;99.90
43842;DHT22;29495;49.970;20.842;2022-11-21T03:49:14;-2.30;99.90
43842;DHT22;29495;49.970;20.842;2022-11-21T03:51:42;-2.40;99.90
43842;DHT22;29495;49.970;20.842;2022-11-21T03:54:08;-2.30;99.90
43842;DHT22;29495;49.970;20.842;2022-11-21T03:56:35;-2.20;99.90
43842;DHT22;29495;49.970;20.842;2022-11-21T03:59:01;-2.40;99.90
43842;DHT22;29495;49.970;20.842;2022-11-21T04:01:27;-2.40;99.90
43842;DHT22;29495;49.970;20.842;2022-11-21T04:03:53;-2.40;99.90
43842;DHT22;29495;49.970;20.842;2022-11-21T04:06:21;-2.20;99.90
43842;DHT22;29495;49.970;20.842;2022-11-21T04:08:48;-2.20;99.90
43842;DHT22;29495;49.970;20.842;2022-11-21T04:11:14;-2.20;99.90
43842;DHT22;29495;49.970;20.842;2022-11-21T04:13:40;-2.20;99.90
43842;DHT22;29495;49.970;20.842;2022-11-21T04:16:07;-2.10;99.90
43842;DHT22;29495;49.970;20.842;2022-11-21T04:18:34;-2.00;99.90
43842;DHT22;29495;49.970;20.842;2022-11-21T04:21:05;-1.90;99.90
43842;DHT22;29495;49.970;20.842;2022-11-21T04:23:32;-1.90;99.90
43842;DHT22;29495;49.970;20.842;2022-11-21T04:25:58;-1.80;99.90
43842;DHT22;29495;49.970;20.842;2022-11-21T04:28:24;-1.70;99.90
43842;DHT22;29495;49.970;20.842;2022-11-21T04:30:50;-1.70;99.90
43842;DHT22;29495;49.970;20.842;2022-11-21T04:33:17;-1.70;99.90
43842;DHT22;29495;49.970;20.842;2022-11-21T04:35:44;-1.70;99.90
43842;DHT22;29495;49.970;20.842;2022-11-21T04:38:11;-1.80;99.90
43842;DHT22;29495;49.970;20.842;2022-11-21T04:40:37;-1.70;99.90
43842;DHT22;29495;49.970;20.842;2022-11-21T04:43:03;-1.80;99.90
43842;DHT22;29495;49.970;20.842;2022-11-21T04:45:29;-1.90;99.90
43842;DHT22;29495;49.970;20.842;2022-11-21T04:47:56;-1.90;99.90
43842;DHT22;29495;49.970;20.842;2022-11-21T04:50:23;-1.80;99.90
43842;DHT22;29495;49.970;20.842;2022-11-21T04:52:53;-1.90;99.90
43842;DHT22;29495;49.970;20.842;2022-11-21T04:55:21;-1.80;99.90
43842;DHT22;29495;49.970;20.842;2022-11-21T04:57:47;-1.90;99.90
43842;DHT22;29495;49.970;20.842;2022-11-21T05:00:15;-1.90;99.90
43842;DHT22;29495;49.970;20.842;2022-11-21T05:02:41;-1.90;99.90
43842;DHT22;29495;49.970;20.842;2022-11-21T05:05:07;-1.90;99.90
43842;DHT22;29495;49.970;20.842;2022-11-21T05:07:33;-2.00;99.90
43842;DHT22;29495;49.970;20.842;2022-11-21T05:09:59;-2.00;99.90
43842;DHT22;29495;49.970;20.842;2022-11-21T05:12:25;-2.10;99.90
43842;DHT22;29495;49.970;20.842;2022-11-21T05:15:10;-2.10;99.90
43842;DHT22;29495;49.970;20.842;2022-11-21T05:17:36;-2.20;99.90
43842;DHT22;29495;49.970;20.842;2022-11-21T05:20:02;-2.30;99.90
43842;DHT22;29495;49.970;20.842;2022-11-21T05:22:28;-2.30;99.90
43842;DHT22;29495;49.970;20.842;2022-11-21T05:24:54;-2.40;99.90
43842;DHT22;29495;49.970;20.842;2022-11-21T05:27:20;-2.40;99.90
43842;DHT22;29495;49.970;20.842;2022-11-21T05:29:46;-2.50;99.90
43842;DHT22;29495;49.970;20.842;2022-11-21T05:32:12;-2.60;99.90
43842;DHT22;29495;49.970;20.842;2022-11-21T05:34:38;-2.50;99.90
43842;DHT22;29495;49.970;20.842;2022-11-21T05:37:04;-2.50;99.90
43842;DHT22;29495;49.970;20.842;2022-11-21T05:39:30;-2.50;99.90
43842;DHT22;29495;49.970;20.842;2022-11-21T05:41:56;-2.40;99.90
43842;DHT22;29495;49.970;20.842;2022-11-21T05:44:22;-2.60;99.90
43842;DHT22;29495;49.970;20.842;2022-11-21T05:46:48;-2.60;99.90
43842;DHT22;29495;49.970;20.842;2022-11-21T05:49:14;-2.50;99.90
43842;DHT22;29495;49.970;20.842;2022-11-21T05:51:40;-2.60;99.90
43842;DHT22;29495;49.970;20.842;2022-11-21T05:54:06;-2.50;99.90
43842;DHT22;29495;49.970;20.842;2022-11-21T05:56:32;-2.50;99.90
43842;DHT22;29495;49.970;20.842;2022-11-21T05:58:58;-2.70;99.90
43842;DHT22;29495;49.970;20.842;2022-11-21T06:01:24;-2.60;99.90
43842;DHT22;29495;49.970;20.842;2022-11-21T06:04:09;-2.50;99.90
43842;DHT22;29495;49.970;20.842;2022-11-21T06:06:36;-2.50;99.90
43842;DHT22;29495;49.970;20.842;2022-11-21T06:09:03;-2.40;99.90
43842;DHT22;29495;49.970;20.842;2022-11-21T06:11:29;-2.50;99.90
43842;DHT22;29495;49.970;20.842;2022-11-21T06:13:55;-2.50;99.90
43842;DHT22;29495;49.970;20.842;2022-11-21T06:16:21;-2.50;99.90
43842;DHT22;29495;49.970;20.842;2022-11-21T06:18:49;-2.40;99.90
43842;DHT22;29495;49.970;20.842;2022-11-21T06:21:21;-2.40;99.90
43842;DHT22;29495;49.970;20.842;2022-11-21T06:23:50;-2.40;99.90
43842;DHT22;29495;49.970;20.842;2022-11-21T06:26:19;-2.40;99.90
43842;DHT22;29495;49.970;20.842;2022-11-21T06:28:46;-2.40;99.90
43842;DHT22;29495;49.970;20.842;2022-11-21T06:31:14;-2.30;99.90
43842;DHT22;29495;49.970;20.842;2022-11-21T06:33:41;-2.20;99.90
43842;DHT22;29495;49.970;20.842;2022-11-21T06:36:10;-2.10;99.90
43842;DHT22;29495;49.970;20.842;2022-11-21T06:38:36;-2.00;99.90
43842;DHT22;29495;49.970;20.842;2022-11-21T06:41:17;-2.00;99.90
43842;DHT22;29495;49.970;20.842;2022-11-21T06:43:43;-1.90;99.90
43842;DHT22;29495;49.970;20.842;2022-11-21T06:46:10;-1.90;99.90
43842;DHT22;29495;49.970;20.842;2022-11-21T06:48:37;-1.80;99.90
43842;DHT22;29495;49.970;20.842;2022-11-21T06:51:20;-1.80;99.90
43842;DHT22;29495;49.970;20.842;2022-11-21T06:53:47;-1.80;99.90
43842;DHT22;29495;49.970;20.842;2022-11-21T06:56:21;-1.90;99.90
43842;DHT22;29495;49.970;20.842;2022-11-21T06:58:47;-1.80;99.90
43842;DHT22;29495;49.970;20.842;2022-11-21T07:01:13;-1.80;99.90
43842;DHT22;29495;49.970;20.842;2022-11-21T07:03:39;-1.80;99.90
43842;DHT22;29495;49.970;20.842;2022-11-21T07:06:05;-1.80;99.90
43842;DHT22;29495;49.970;20.842;2022-11-21T07:08:34;-1.50;99.90
43842;DHT22;29495;49.970;20.842;2022-11-21T07:13:28;-1.10;99.90
43842;DHT22;29495;49.970;20.842;2022-11-21T07:16:00;-1.20;99.90
43842;DHT22;29495;49.970;20.842;2022-11-21T07:18:26;-1.00;99.90
43842;DHT22;29495;49.970;20.842;2022-11-21T07:20:59;-0.70;99.90
43842;DHT22;29495;49.970;20.842;2022-11-21T07:23:26;-0.50;99.90
43842;DHT22;29495;49.970;20.842;2022-11-21T07:25:52;-0.40;99.90
43842;DHT22;29495;49.970;20.842;2022-11-21T07:28:18;-0.10;99.90
43842;DHT22;29495;49.970;20.842;2022-11-21T07:30:44;-0.20;99.90
43842;DHT22;29495;49.970;20.842;2022-11-21T07:39:02;0.20;99.90
43842;DHT22;29495;49.970;20.842;2022-11-21T07:41:28;0.20;99.90
43842;DHT22;29495;49.970;20.842;2022-11-21T07:43:54;0.60;99.90
43842;DHT22;29495;49.970;20.842;2022-11-21T07:46:20;0.80;99.90
43842;DHT22;29495;49.970;20.842;2022-11-21T07:48:46;0.90;99.90
43842;DHT22;29495;49.970;20.842;2022-11-21T07:51:13;1.10;99.90
43842;DHT22;29495;49.970;20.842;2022-11-21T07:53:38;1.00;99.90
43842;DHT22;29495;49.970;20.842;2022-11-21T07:56:04;1.10;99.90
43842;DHT22;29495;49.970;20.842;2022-11-21T07:58:34;0.80;99.90
43842;DHT22;29495;49.970;20.842;2022-11-21T08:01:04;0.70;99.90
43842;DHT22;29495;49.970;20.842;2022-11-21T08:03:31;0.60;99.90
43842;DHT22;29495;49.970;20.842;2022-11-21T08:06:00;0.60;99.90
43842;DHT22;29495;49.970;20.842;2022-11-21T08:08:27;0.50;99.90
43842;DHT22;29495;49.970;20.842;2022-11-21T08:10:53;0.60;99.90
43842;DHT22;29495;49.970;20.842;2022-11-21T08:13:19;0.60;99.90
43842;DHT22;29495;49.970;20.842;2022-11-21T08:15:45;0.60;99.90
43842;DHT22;29495;49.970;20.842;2022-11-21T08:18:15;0.60;99.90
43842;DHT22;29495;49.970;20.842;2022-11-21T08:20:45;0.60;99.90
43842;DHT22;29495;49.970;20.842;2022-11-21T08:23:11;0.60;99.90
43842;DHT22;29495;49.970;20.842;2022-11-21T08:25:39;0.60;99.90
43842;DHT22;29495;49.970;20.842;2022-11-21T08:28:06;0.60;99.90
43842;DHT22;29495;49.970;20.842;2022-11-21T08:30:33;0.50;99.90
43842;DHT22;29495;49.970;20.842;2022-11-21T08:33:00;0.50;99.90
43842;DHT22;29495;49.970;20.842;2022-11-21T08:35:27;0.60;99.90
43842;DHT22;29495;49.970;20.842;2022-11-21T08:37:57;0.50;99.90
43842;DHT22;29495;49.970;20.842;2022-11-21T08:40:24;0.60;99.90
43842;DHT22;29495;49.970;20.842;2022-11-21T08:43:00;0.70;99.90
43842;DHT22;29495;49.970;20.842;2022-11-21T08:45:27;0.80;99.90
43842;DHT22;29495;49.970;20.842;2022-11-21T08:47:53;0.90;99.90
43842;DHT22;29495;49.970;20.842;2022-11-21T08:50:20;1.00;99.90
43842;DHT22;29495;49.970;20.842;2022-11-21T08:52:47;1.00;99.90
43842;DHT22;29495;49.970;20.842;2022-11-21T08:55:13;1.00;99.90
43842;DHT22;29495;49.970;20.842;2022-11-21T08:57:40;1.10;99.90
43842;DHT22;29495;49.970;20.842;2022-11-21T09:00:08;1.20;99.90
43842;DHT22;29495;49.970;20.842;2022-11-21T09:02:35;1.20;99.90
43842;DHT22;29495;49.970;20.842;2022-11-21T09:05:01;1.10;99.90
43842;DHT22;29495;49.970;20.842;2022-11-21T09:07:27;1.20;99.90
43842;DHT22;29495;49.970;20.842;2022-11-21T09:09:53;1.30;99.90
43842;DHT22;29495;49.970;20.842;2022-11-21T09:12:19;1.40;99.90
43842;DHT22;29495;49.970;20.842;2022-11-21T09:14:45;1.50;99.90
43842;DHT22;29495;49.970;20.842;2022-11-21T09:17:29;1.50;99.90
43842;DHT22;29495;49.970;20.842;2022-11-21T09:20:14;1.60;99.90
43842;DHT22;29495;49.970;20.842;2022-11-21T09:22:40;1.80;99.90
43842;DHT22;29495;49.970;20.842;2022-11-21T09:25:06;1.80;99.90
43842;DHT22;29495;49.970;20.842;2022-11-21T09:27:32;1.90;99.90
43842;DHT22;29495;49.970;20.842;2022-11-21T09:29:58;1.90;99.90
43842;DHT22;29495;49.970;20.842;2022-11-21T09:32:24;2.00;99.90
43842;DHT22;29495;49.970;20.842;2022-11-21T09:34:50;2.00;99.90
43842;DHT22;29495;49.970;20.842;2022-11-21T09:37:16;2.00;99.90
43842;DHT22;29495;49.970;20.842;2022-11-21T09:39:42;2.00;99.90
43842;DHT22;29495;49.970;20.842;2022-11-21T09:45:18;2.00;99.90
43842;DHT22;29495;49.970;20.842;2022-11-21T09:47:48;2.20;99.90
43842;DHT22;29495;49.970;20.842;2022-11-21T09:50:21;2.20;99.90
43842;DHT22;29495;49.970;20.842;2022-11-21T09:52:57;2.30;99.90
43842;DHT22;29495;49.970;20.842;2022-11-21T09:57:54;2.60;99.90
43842;DHT22;29495;49.970;20.842;2022-11-21T10:00:22;2.70;99.90
43842;DHT22;29495;49.970;20.842;2022-11-21T10:02:50;2.80;99.90
43842;DHT22;29495;49.970;20.842;2022-11-21T10:05:46;2.80;99.90
43842;DHT22;29495;49.970;20.842;2022-11-21T10:11:15;2.90;99.90
43842;DHT22;29495;49.970;20.842;2022-11-21T10:14:20;3.00;99.90
43842;DHT22;29495;49.970;20.842;2022-11-21T10:16:54;3.10;99.90
43842;DHT22;29495;49.970;20.842;2022-11-21T10:22:14;3.40;99.90
43842;DHT22;29495;49.970;20.842;2022-11-21T10:24:54;3.50;99.90
43842;DHT22;29495;49.970;20.842;2022-11-21T10:27:28;3.50;99.90
43842;DHT22;29495;49.970;20.842;2022-11-21T10:30:01;3.40;99.90
43842;DHT22;29495;49.970;20.842;2022-11-21T10:32:40;3.40;99.90
43842;DHT22;29495;49.970;20.842;2022-11-21T10:35:20;3.40;99.90
43842;DHT22;29495;49.970;20.842;2022-11-21T10:37:59;3.50;99.90
43842;DHT22;29495;49.970;20.842;2022-11-21T10:40:35;3.60;99.90
43842;DHT22;29495;49.970;20.842;2022-11-21T10:46:12;3.90;99.90
43842;DHT22;29495;49.970;20.842;2022-11-21T10:48:38;3.90;99.90
43842;DHT22;29495;49.970;20.842;2022-11-21T10:51:18;4.00;99.90
43842;DHT22;29495;49.970;20.842;2022-11-21T10:54:07;4.00;99.90
43842;DHT22;29495;49.970;20.842;2022-11-21T10:56:52;4.00;99.90
43842;DHT22;29495;49.970;20.842;2022-11-21T10:59:26;4.30;99.90
43842;DHT22;29495;49.970;20.842;2022-11-21T11:04:24;4.40;99.90
43842;DHT22;29495;49.970;20.842;2022-11-21T11:06:50;4.50;99.90
43842;DHT22;29495;49.970;20.842;2022-11-21T11:09:31;4.50;99.90
43842;DHT22;29495;49.970;20.842;2022-11-21T11:14:55;4.70;99.90
43842;DHT22;29495;49.970;20.842;2022-11-21T11:17:33;4.90;99.90
43842;DHT22;29495;49.970;20.842;2022-11-21T11:20:03;5.00;99.90
43842;DHT22;29495;49.970;20.842;2022-11-21T11:22:30;5.00;99.90
43842;DHT22;29495;49.970;20.842;2022-11-21T11:24:56;5.10;99.90
43842;DHT22;29495;49.970;20.842;2022-11-21T11:27:28;5.10;99.90
43842;DHT22;29495;49.970;20.842;2022-11-21T11:29:54;5.20;99.90
43842;DHT22;29495;49.970;20.842;2022-11-21T11:32:21;5.40;99.90
43842;DHT22;29495;49.970;20.842;2022-11-21T11:34:57;5.20;99.90
43842;DHT22;29495;49.970;20.842;2022-11-21T11:37:39;5.00;99.90
43842;DHT22;29495;49.970;20.842;2022-11-21T11:40:38;4.90;99.90
43842;DHT22;29495;49.970;20.842;2022-11-21T11:49:44;4.80;99.90
43842;DHT22;29495;49.970;20.842;2022-11-21T11:52:37;4.80;99.90
43842;DHT22;29495;49.970;20.842;2022-11-21T11:55:06;4.90;99.90
43842;DHT22;29495;49.970;20.842;2022-11-21T11:57:34;5.00;99.90
43842;DHT22;29495;49.970;20.842;2022-11-21T12:00:24;5.20;99.90
43842;DHT22;29495;49.970;20.842;2022-11-21T12:06:08;5.60;99.90
43842;DHT22;29495;49.970;20.842;2022-11-21T12:08:40;5.70;99.90
43842;DHT22;29495;49.970;20.842;2022-11-21T12:14:19;5.70;99.90
43842;DHT22;29495;49.970;20.842;2022-11-21T12:17:08;5.70;99.90
43842;DHT22;29495;49.970;20.842;2022-11-21T12:19:36;5.70;99.90
43842;DHT22;29495;49.970;20.842;2022-11-21T12:22:02;5.60;99.90
43842;DHT22;29495;49.970;20.842;2022-11-21T12:24:32;5.60;99.90
43842;DHT22;29495;49.970;20.842;2022-11-21T12:27:15;5.50;99.90
43842;DHT22;29495;49.970;20.842;2022-11-21T12:32:44;5.30;99.90
43842;DHT22;29495;49.970;20.842;2022-11-21T12:38:18;5.10;99.90
43842;DHT22;29495;49.970;20.842;2022-11-21T12:46:35;4.90;99.90
43842;DHT22;29495;49.970;20.842;2022-11-21T13:01:17;4.80;99.90
43842;DHT22;29495;49.970;20.842;2022-11-21T13:03:57;4.80;99.90
43842;DHT22;29495;49.970;20.842;2022-11-21T13:06:27;4.80;99.90
43842;DHT22;29495;49.970;20.842;2022-11-21T13:08:55;4.80;99.90
43842;DHT22;29495;49.970;20.842;2022-11-21T13:12:12;4.80;99.90
43842;DHT22;29495;49.970;20.842;2022-11-21T13:20:16;4.90;99.90
43842;DHT22;29495;49.970;20.842;2022-11-21T13:30:49;4.80;99.90
43842;DHT22;29495;49.970;20.842;2022-11-21T13:36:11;4.80;99.90
43842;DHT22;29495;49.970;20.842;2022-11-21T13:55:12;4.60;99.90
43842;DHT22;29495;49.970;20.842;2022-11-21T14:00:40;4.60;99.90
43842;DHT22;29495;49.970;20.842;2022-11-21T14:03:18;4.60;99.90
43842;DHT22;29495;49.970;20.842;2022-11-21T14:09:18;4.60;99.90
43842;DHT22;29495;49.970;20.842;2022-11-21T14:14:37;4.70;99.90
43842;DHT22;29495;49.970;20.842;2022-11-21T14:17:16;4.60;99.90
43842;DHT22;29495;49.970;20.842;2022-11-21T14:19:45;4.50;99.90
43842;DHT22;29495;49.970;20.842;2022-11-21T14:22:23;4.60;99.90
43842;DHT22;29495;49.970;20.842;2022-11-21T14:24:51;4.60;99.90
43842;DHT22;29495;49.970;20.842;2022-11-21T14:27:30;4.60;99.90
43842;DHT22;29495;49.970;20.842;2022-11-21T14:29:57;4.60;99.90
43842;DHT22;29495;49.970;20.842;2022-11-21T14:32:27;4.50;99.90
43842;DHT22;29495;49.970;20.842;2022-11-21T14:35:23;4.40;99.90
43842;DHT22;29495;49.970;20.842;2022-11-21T14:37:50;4.30;99.90
43842;DHT22;29495;49.970;20.842;2022-11-21T14:40:23;4.30;99.90
43842;DHT22;29495;49.970;20.842;2022-11-21T14:42:49;4.30;99.90
43842;DHT22;29495;49.970;20.842;2022-11-21T14:45:22;4.30;99.90
43842;DHT22;29495;49.970;20.842;2022-11-21T14:47:50;4.30;99.90
43842;DHT22;29495;49.970;20.842;2022-11-21T14:50:30;4.30;99.90
43842;DHT22;29495;49.970;20.842;2022-11-21T14:52:59;4.30;99.90
43842;DHT22;29495;49.970;20.842;2022-11-21T14:55:32;4.30;99.90
43842;DHT22;29495;49.970;20.842;2022-11-21T14:58:00;4.30;99.90
43842;DHT22;29495;49.970;20.842;2022-11-21T15:00:28;4.20;99.90
43842;DHT22;29495;49.970;20.842;2022-11-21T15:02:56;4.30;99.90
43842;DHT22;29495;49.970;20.842;2022-11-21T15:05:33;4.30;99.90
43842;DHT22;29495;49.970;20.842;2022-11-21T15:07:59;4.30;99.90
43842;DHT22;29495;49.970;20.842;2022-11-21T15:10:33;4.30;99.90
43842;DHT22;29495;49.970;20.842;2022-11-21T15:13:10;4.20;99.90
43842;DHT22;29495;49.970;20.842;2022-11-21T15:15:47;4.20;99.90
43842;DHT22;29495;49.970;20.842;2022-11-21T15:18:23;4.20;99.90
43842;DHT22;29495;49.970;20.842;2022-11-21T15:20:52;4.20;99.90
43842;DHT22;29495;49.970;20.842;2022-11-21T15:23:35;4.20;99.90
43842;DHT22;29495;49.970;20.842;2022-11-21T15:26:05;4.10;99.90
43842;DHT22;29495;49.970;20.842;2022-11-21T15:28:31;4.10;99.90
43842;DHT22;29495;49.970;20.842;2022-11-21T15:36:22;4.00;99.90
43842;DHT22;29495;49.970;20.842;2022-11-21T15:38:49;4.10;99.90
43842;DHT22;29495;49.970;20.842;2022-11-21T15:43:49;4.00;99.90
43842;DHT22;29495;49.970;20.842;2022-11-21T15:46:26;4.00;99.90
43842;DHT22;29495;49.970;20.842;2022-11-21T15:51:52;4.10;99.90
43842;DHT22;29495;49.970;20.842;2022-11-21T15:54:20;4.00;99.90
43842;DHT22;29495;49.970;20.842;2022-11-21T15:56:47;4.00;99.90
43842;DHT22;29495;49.970;20.842;2022-11-21T15:59:13;4.10;99.90
43842;DHT22;29495;49.970;20.842;2022-11-21T16:01:41;4.00;99.90
43842;DHT22;29495;49.970;20.842;2022-11-21T16:04:09;4.00;99.90
43842;DHT22;29495;49.970;20.842;2022-11-21T16:06:35;4.00;99.90
43842;DHT22;29495;49.970;20.842;2022-11-21T16:09:02;4.00;99.90
43842;DHT22;29495;49.970;20.842;2022-11-21T16:11:33;4.00;99.90
43842;DHT22;29495;49.970;20.842;2022-11-21T16:14:01;4.00;99.90
43842;DHT22;29495;49.970;20.842;2022-11-21T16:16:35;4.00;99.90
43842;DHT22;29495;49.970;20.842;2022-11-21T16:19:02;4.00;99.90
43842;DHT22;29495;49.970;20.842;2022-11-21T16:21:28;4.10;99.90
43842;DHT22;29495;49.970;20.842;2022-11-21T16:23:54;4.00;99.90
43842;DHT22;29495;49.970;20.842;2022-11-21T16:26:22;4.00;99.90
43842;DHT22;29495;49.970;20.842;2022-11-21T16:28:56;4.00;99.90
43842;DHT22;29495;49.970;20.842;2022-11-21T16:31:24;4.00;99.90
43842;DHT22;29495;49.970;20.842;2022-11-21T16:33:50;4.00;99.90
43842;DHT22;29495;49.970;20.842;2022-11-21T16:36:20;4.00;99.90
43842;DHT22;29495;49.970;20.842;2022-11-21T16:38:46;4.00;99.90
43842;DHT22;29495;49.970;20.842;2022-11-21T16:41:12;4.10;99.90
43842;DHT22;29495;49.970;20.842;2022-11-21T16:43:48;4.10;99.90
43842;DHT22;29495;49.970;20.842;2022-11-21T16:46:15;4.00;99.90
43842;DHT22;29495;49.970;20.842;2022-11-21T16:48:42;4.10;99.90
43842;DHT22;29495;49.970;20.842;2022-11-21T16:53:38;4.00;99.90
43842;DHT22;29495;49.970;20.842;2022-11-21T16:56:05;4.00;99.90
43842;DHT22;29495;49.970;20.842;2022-11-21T16:58:31;4.00;99.90
43842;DHT22;29495;49.970;20.842;2022-11-21T17:00:57;3.90;99.90
43842;DHT22;29495;49.970;20.842;2022-11-21T17:03:23;3.90;99.90
43842;DHT22;29495;49.970;20.842;2022-11-21T17:05:59;3.90;99.90
43842;DHT22;29495;49.970;20.842;2022-11-21T17:08:27;4.00;99.90
43842;DHT22;29495;49.970;20.842;2022-11-21T17:10:53;3.90;99.90
43842;DHT22;29495;49.970;20.842;2022-11-21T17:13:19;4.00;99.90
43842;DHT22;29495;49.970;20.842;2022-11-21T17:15:45;4.00;99.90
43842;DHT22;29495;49.970;20.842;2022-11-21T17:18:11;4.00;99.90
43842;DHT22;29495;49.970;20.842;2022-11-21T17:20:37;4.10;99.90
43842;DHT22;29495;49.970;20.842;2022-11-21T17:23:03;4.00;99.90
43842;DHT22;29495;49.970;20.842;2022-11-21T17:25:29;4.00;99.90
43842;DHT22;29495;49.970;20.842;2022-11-21T17:27:55;4.10;99.90
43842;DHT22;29495;49.970;20.842;2022-11-21T17:30:21;4.20;99.90
43842;DHT22;29495;49.970;20.842;2022-11-21T17:32:48;4.20;99.90
43842;DHT22;29495;49.970;20.842;2022-11-21T17:35:14;4.20;99.90
43842;DHT22;29495;49.970;20.842;2022-11-21T17:37:40;4.10;99.90
43842;DHT22;29495;49.970;20.842;2022-11-21T17:40:06;4.20;99.90
43842;DHT22;29495;49.970;20.842;2022-11-21T17:42:37;4.10;99.90
43842;DHT22;29495;49.970;20.842;2022-11-21T17:45:06;4.20;99.90
43842;DHT22;29495;49.970;20.842;2022-11-21T17:47:33;4.20;99.90
43842;DHT22;29495;49.970;20.842;2022-11-21T17:49:59;4.20;99.90